Time;durP1;ratioP1;P1;durP2;ratioP2;P2;SDS_P1;SDS_P2;PMS_P1;PMS_P2;Temp;Humidity;BMP_temperature;BMP_pressure;BME280_temperature;BME280_humidity;BME280_pressure;Samples;Min_cycle;Max_cycle;Signal;HPM_P1;HPM_P2
2021/08/11 00:01:55;;;;;;;7.22;3.47;;;18.40;99.90;;;;;;6159297;23;20005;-86
2021/08/11 00:04:20;;;;;;;6.57;3.67;;;18.30;99.90;;;;;;6159822;23;20020;-87
2021/08/11 00:06:45;;;;;;;8.52;4.57;;;18.40;99.90;;;;;;6140490;23;20009;-85
2021/08/11 00:09:11;;;;;;;6.13;4.65;;;18.30;99.90;;;;;;6174830;23;20012;-87
2021/08/11 00:11:37;;;;;;;6.38;4.22;;;18.30;99.90;;;;;;6159903;23;20024;-85
2021/08/11 00:14:03;;;;;;;6.35;3.97;;;18.20;99.90;;;;;;6134104;23;20045;-87
2021/08/11 00:16:28;;;;;;;5.28;3.65;;;18.20;99.90;;;;;;6160114;23;20334;-87
2021/08/11 00:18:54;;;;;;;6.55;4.22;;;18.20;99.90;;;;;;6133697;23;20016;-87
2021/08/11 00:21:20;;;;;;;5.22;3.50;;;18.10;99.90;;;;;;6133918;23;20017;-86
2021/08/11 00:23:46;;;;;;;4.63;3.22;;;18.10;99.90;;;;;;6133292;23;20417;-86
2021/08/11 00:26:11;;;;;;;8.18;3.65;;;18.10;99.90;;;;;;6161317;23;20016;-87
2021/08/11 00:28:37;;;;;;;5.07;3.47;;;18.10;99.90;;;;;;6133592;23;20013;-86
2021/08/11 00:31:02;;;;;;;5.78;3.55;;;18.00;99.90;;;;;;6134030;23;20008;-84
2021/08/11 00:33:28;;;;;;;5.45;3.40;;;18.00;99.90;;;;;;6159893;23;20005;-86
2021/08/11 00:35:53;;;;;;;3.70;2.95;;;18.10;99.90;;;;;;6133849;23;20024;-86
2021/08/11 00:38:20;;;;;;;4.75;3.13;;;18.00;99.90;;;;;;6134383;23;20017;-86
2021/08/11 00:40:46;;;;;;;5.28;2.80;;;18.00;99.90;;;;;;6165712;23;20033;-86
2021/08/11 00:43:12;;;;;;;3.72;2.80;;;18.00;99.90;;;;;;6173514;23;20006;-86
2021/08/11 00:45:38;;;;;;;3.58;2.95;;;18.00;99.90;;;;;;6159407;23;20008;-86
2021/08/11 00:48:06;;;;;;;5.15;2.75;;;17.90;99.90;;;;;;6134145;23;20235;-86
2021/08/11 00:50:32;;;;;;;5.82;2.70;;;17.90;99.90;;;;;;6133957;23;20017;-86
2021/08/11 00:52:58;;;;;;;4.00;2.75;;;17.90;99.90;;;;;;6133526;23;20005;-87
2021/08/11 00:55:24;;;;;;;3.55;2.55;;;17.90;99.90;;;;;;6134119;23;20016;-85
2021/08/11 00:57:51;;;;;;;5.07;2.38;;;17.90;99.90;;;;;;6132945;23;20018;-86
2021/08/11 01:00:18;;;;;;;3.75;2.83;;;17.80;99.90;;;;;;6159162;23;20005;-87
2021/08/11 01:02:45;;;;;;;3.67;2.22;;;17.80;99.90;;;;;;6133107;23;20006;-86
2021/08/11 01:05:12;;;;;;;3.15;2.30;;;17.80;99.90;;;;;;6133912;23;20020;-86
2021/08/11 01:07:38;;;;;;;6.03;2.60;;;17.80;99.90;;;;;;6133593;23;20029;-87
2021/08/11 01:10:05;;;;;;;4.28;2.88;;;17.70;99.90;;;;;;6158957;23;19998;-87
2021/08/11 01:12:32;;;;;;;5.25;3.08;;;17.70;99.90;;;;;;6133373;23;20077;-86
2021/08/11 01:14:59;;;;;;;4.00;2.60;;;17.70;99.90;;;;;;6133092;23;20013;-87
2021/08/11 01:17:26;;;;;;;3.17;2.38;;;17.60;99.90;;;;;;6133584;23;20009;-86
2021/08/11 01:19:51;;;;;;;4.75;2.67;;;17.60;99.90;;;;;;6158473;23;20005;-87
2021/08/11 01:22:50;;;;;;;3.53;2.42;;;17.60;99.90;;;;;;6159397;23;20010;-88
2021/08/11 01:25:38;;;;;;;5.53;2.30;;;17.50;99.90;;;;;;6131711;23;20013;-86
2021/08/11 01:28:24;;;;;;;3.58;2.13;;;17.50;99.90;;;;;;6166971;23;20009;-86
2021/08/11 01:30:59;;;;;;;4.60;2.58;;;17.50;99.90;;;;;;6167310;23;20016;-87
2021/08/11 01:33:52;;;;;;;3.55;2.58;;;17.40;99.90;;;;;;6146674;23;20012;-86
2021/08/11 01:36:51;;;;;;;9.52;2.50;;;17.40;99.90;;;;;;6136343;23;20009;-86
2021/08/11 01:39:41;;;;;;;4.18;2.97;;;17.40;99.90;;;;;;6133779;23;20009;-87
2021/08/11 01:42:09;;;;;;;4.72;2.72;;;17.40;99.90;;;;;;6133577;23;20009;-85
2021/08/11 01:44:38;;;;;;;3.88;2.00;;;17.40;99.90;;;;;;6158660;23;20005;-84
2021/08/11 01:47:08;;;;;;;2.80;2.20;;;17.30;99.90;;;;;;6133456;23;20084;-85
2021/08/11 01:49:35;;;;;;;5.38;3.20;;;17.30;99.90;;;;;;6132914;23;20025;-85
2021/08/11 01:52:03;;;;;;;5.13;2.85;;;17.20;99.90;;;;;;6133683;23;20357;-85
2021/08/11 01:54:29;;;;;;;5.90;2.72;;;17.20;99.90;;;;;;6157917;23;20301;-85
2021/08/11 01:56:57;;;;;;;7.38;2.90;;;17.20;99.90;;;;;;6133361;23;20039;-86
2021/08/11 01:59:23;;;;;;;4.50;2.92;;;17.30;99.90;;;;;;6133803;23;20469;-86
2021/08/11 02:01:49;;;;;;;7.78;3.40;;;17.30;99.90;;;;;;6133349;23;20013;-89
2021/08/11 02:04:16;;;;;;;3.83;2.45;;;17.30;99.90;;;;;;6136208;23;20002;-86
2021/08/11 02:06:44;;;;;;;4.38;2.95;;;17.30;99.90;;;;;;6152639;23;20644;-87
2021/08/11 02:09:12;;;;;;;4.93;3.05;;;17.30;99.90;;;;;;6161134;23;20005;-87
2021/08/11 02:11:40;;;;;;;5.05;2.75;;;17.30;99.90;;;;;;6134482;23;20256;-86
2021/08/11 02:14:08;;;;;;;5.05;3.05;;;17.30;99.90;;;;;;6160788;23;20377;-87
2021/08/11 02:16:34;;;;;;;6.22;3.00;;;17.30;99.90;;;;;;6135098;23;20319;-87
2021/08/11 02:18:59;;;;;;;5.57;2.90;;;17.40;99.90;;;;;;6135210;23;20025;-86
2021/08/11 02:21:25;;;;;;;3.45;2.95;;;17.30;99.90;;;;;;6136381;23;20006;-88
2021/08/11 02:23:50;;;;;;;6.78;3.42;;;17.30;99.90;;;;;;6160818;23;20017;-86
2021/08/11 02:26:21;;;;;;;4.50;3.15;;;17.30;99.90;;;;;;6135136;23;20040;-86
2021/08/11 02:28:57;;;;;;;7.03;2.95;;;17.30;99.90;;;;;;6134862;23;20084;-86
2021/08/11 02:31:37;;;;;;;4.10;2.72;;;17.20;99.90;;;;;;6134963;23;20013;-86
2021/08/11 02:34:29;;;;;;;4.50;2.88;;;17.20;99.90;;;;;;6160308;23;20002;-86
2021/08/11 02:37:02;;;;;;;5.55;3.10;;;17.20;99.90;;;;;;6135436;23;20009;-86
2021/08/11 02:39:42;;;;;;;2.53;2.25;;;17.20;99.90;;;;;;6150629;23;20041;-86
2021/08/11 02:42:11;;;;;;;3.60;2.70;;;17.10;99.90;;;;;;6137516;23;20096;-86
2021/08/11 02:44:47;;;;;;;4.30;2.95;;;17.10;99.90;;;;;;6135045;23;20009;-86
2021/08/11 02:47:13;;;;;;;4.63;3.03;;;17.10;99.90;;;;;;6160015;23;20025;-86
2021/08/11 02:49:38;;;;;;;4.47;2.90;;;17.10;99.90;;;;;;6135865;23;20060;-87
2021/08/11 02:52:05;;;;;;;3.85;2.65;;;17.00;99.90;;;;;;6134822;23;20242;-87
2021/08/11 02:54:32;;;;;;;3.58;2.60;;;17.00;99.90;;;;;;6160542;23;20009;-86
2021/08/11 02:57:01;;;;;;;3.70;2.83;;;17.00;99.90;;;;;;6160326;23;20039;-86
2021/08/11 02:59:28;;;;;;;6.80;3.40;;;17.00;99.90;;;;;;6134490;23;20009;-86
2021/08/11 03:01:54;;;;;;;5.00;3.10;;;17.00;99.90;;;;;;6134969;23;20012;-85
2021/08/11 03:04:19;;;;;;;4.55;2.60;;;16.90;99.90;;;;;;6134851;23;20016;-86
2021/08/11 03:06:45;;;;;;;4.80;3.10;;;16.90;99.90;;;;;;6134624;23;20084;-86
2021/08/11 03:09:11;;;;;;;4.47;2.50;;;16.90;99.90;;;;;;6134554;23;20033;-87
2021/08/11 03:11:37;;;;;;;3.83;2.63;;;16.90;99.90;;;;;;6134941;23;20016;-86
2021/08/11 03:14:05;;;;;;;4.38;2.65;;;16.80;99.90;;;;;;6148045;23;19997;-86
2021/08/11 03:16:31;;;;;;;8.02;2.97;;;16.80;99.90;;;;;;6170331;23;20329;-86
2021/08/11 03:18:56;;;;;;;5.05;2.83;;;16.70;99.90;;;;;;6134733;23;20052;-86
2021/08/11 03:21:22;;;;;;;6.78;3.17;;;16.70;99.90;;;;;;6134209;23;20112;-86
2021/08/11 03:23:47;;;;;;;4.10;2.92;;;16.70;99.90;;;;;;6134399;23;20019;-86
2021/08/11 03:26:13;;;;;;;12.05;3.15;;;16.60;99.90;;;;;;6133565;23;20004;-86
2021/08/11 03:28:38;;;;;;;4.97;3.28;;;16.60;99.90;;;;;;6159603;23;20001;-87
2021/08/11 03:31:04;;;;;;;5.13;2.80;;;16.60;99.90;;;;;;6135546;23;20014;-86
2021/08/11 03:33:30;;;;;;;3.38;2.50;;;16.60;99.90;;;;;;6137771;23;20009;-86
2021/08/11 03:35:56;;;;;;;4.53;2.95;;;16.60;99.90;;;;;;6159910;23;20053;-86
2021/08/11 03:38:21;;;;;;;4.25;2.60;;;16.60;99.90;;;;;;6159410;23;20001;-86
2021/08/11 03:40:46;;;;;;;4.15;2.67;;;16.60;99.90;;;;;;6133911;23;20009;-86
2021/08/11 03:43:12;;;;;;;4.10;2.63;;;16.60;99.90;;;;;;6159616;23;20381;-86
2021/08/11 03:45:37;;;;;;;5.82;2.42;;;16.60;99.90;;;;;;6133640;23;20024;-85
2021/08/11 03:48:03;;;;;;;9.07;3.25;;;16.70;99.90;;;;;;6159299;23;19997;-85
2021/08/11 03:50:29;;;;;;;3.20;2.50;;;16.70;99.90;;;;;;6133534;23;20013;-85
2021/08/11 03:52:54;;;;;;;3.47;2.65;;;16.60;99.90;;;;;;6134013;23;20009;-85
2021/08/11 03:55:20;;;;;;;4.18;2.65;;;16.70;99.90;;;;;;6134106;23;20017;-86
2021/08/11 03:57:45;;;;;;;4.47;3.42;;;16.70;99.90;;;;;;6134373;23;20096;-86
2021/08/11 04:00:12;;;;;;;3.65;2.63;;;16.70;99.90;;;;;;6133844;23;20007;-85
2021/08/11 04:02:38;;;;;;;5.22;3.05;;;16.70;99.90;;;;;;6132973;23;20009;-86
2021/08/11 04:05:04;;;;;;;5.55;2.83;;;16.60;99.90;;;;;;6159262;23;20234;-86
2021/08/11 04:07:30;;;;;;;4.45;3.22;;;16.70;99.90;;;;;;6133441;23;20009;-85
2021/08/11 04:09:55;;;;;;;3.28;2.75;;;16.70;99.90;;;;;;6133873;23;20080;-85
2021/08/11 04:12:21;;;;;;;4.38;3.08;;;16.60;99.90;;;;;;6165803;23;20008;-85
2021/08/11 04:14:46;;;;;;;3.75;3.13;;;16.60;99.90;;;;;;6172386;23;20017;-86
2021/08/11 04:17:12;;;;;;;5.03;3.17;;;16.60;99.90;;;;;;6159796;23;20326;-85
2021/08/11 04:19:37;;;;;;;3.83;2.65;;;16.60;99.90;;;;;;6158560;23;20006;-86
2021/08/11 04:22:03;;;;;;;6.45;3.15;;;16.60;99.90;;;;;;6133390;23;20044;-87
2021/08/11 04:24:29;;;;;;;4.85;2.55;;;16.60;99.90;;;;;;6133649;23;20016;-87
2021/08/11 04:26:54;;;;;;;3.35;2.63;;;16.60;99.90;;;;;;6133888;23;20100;-87
2021/08/11 04:29:20;;;;;;;5.47;3.00;;;16.60;99.90;;;;;;6134001;23;20095;-87
2021/08/11 04:31:45;;;;;;;4.18;3.13;;;16.60;99.90;;;;;;6159397;23;19998;-87
2021/08/11 04:34:11;;;;;;;4.97;3.90;;;16.60;99.90;;;;;;6159746;23;20010;-87
2021/08/11 04:36:36;;;;;;;6.63;3.35;;;16.60;99.90;;;;;;6133843;23;20228;-87
2021/08/11 04:39:03;;;;;;;5.63;3.22;;;16.60;99.90;;;;;;6134066;23;20020;-86
2021/08/11 04:41:28;;;;;;;7.82;3.10;;;16.60;99.90;;;;;;6133668;23;20005;-86
2021/08/11 04:43:53;;;;;;;5.38;2.60;;;16.60;99.90;;;;;;6134263;23;20005;-87
2021/08/11 04:46:19;;;;;;;3.60;2.83;;;16.60;99.90;;;;;;6159605;23;20032;-87
2021/08/11 04:48:44;;;;;;;6.57;3.55;;;16.60;99.90;;;;;;6160324;23;20090;-87
2021/08/11 04:51:10;;;;;;;5.00;3.45;;;16.60;99.90;;;;;;6156158;23;20009;-87
2021/08/11 04:53:36;;;;;;;7.10;3.70;;;16.60;99.90;;;;;;6135243;23;19997;-86
2021/08/11 04:56:01;;;;;;;5.28;2.60;;;16.60;99.90;;;;;;6134444;23;20344;-87
2021/08/11 04:58:27;;;;;;;8.65;4.45;;;16.60;99.90;;;;;;6133402;23;20005;-87
2021/08/11 05:00:52;;;;;;;4.78;4.00;;;16.60;99.90;;;;;;6132108;23;20080;-86
2021/08/11 05:03:18;;;;;;;5.80;3.70;;;16.60;99.90;;;;;;6130056;23;20005;-86
2021/08/11 05:05:43;;;;;;;4.25;3.63;;;16.70;99.90;;;;;;6157719;23;20008;-86
2021/08/11 05:08:09;;;;;;;9.65;4.93;;;16.70;99.90;;;;;;6132627;23;20471;-87
2021/08/11 05:10:35;;;;;;;7.20;4.40;;;16.70;99.90;;;;;;6133150;23;20049;-87
2021/08/11 05:13:00;;;;;;;6.65;4.53;;;16.70;99.90;;;;;;6136803;23;20002;-87
2021/08/11 05:15:26;;;;;;;5.75;4.05;;;16.70;99.90;;;;;;6140871;23;20144;-88
2021/08/11 05:17:52;;;;;;;8.15;4.50;;;16.70;99.90;;;;;;6162708;23;20035;-87
2021/08/11 05:20:19;;;;;;;5.57;3.53;;;16.80;99.90;;;;;;6161472;23;20005;-88
2021/08/11 05:22:46;;;;;;;4.80;3.60;;;16.80;99.90;;;;;;6134956;23;20012;-87
2021/08/11 05:25:12;;;;;;;5.78;3.67;;;16.90;99.90;;;;;;6134657;23;20317;-87
2021/08/11 05:27:38;;;;;;;4.97;3.90;;;16.90;99.90;;;;;;6158258;23;20005;-87
2021/08/11 05:30:05;;;;;;;9.85;4.32;;;16.90;99.90;;;;;;6133037;23;20013;-87
2021/08/11 05:32:30;;;;;;;5.45;3.80;;;16.80;99.90;;;;;;6158156;23;20005;-87
2021/08/11 05:34:56;;;;;;;6.43;3.30;;;16.90;99.90;;;;;;6135803;23;20041;-88
2021/08/11 05:37:21;;;;;;;6.53;4.15;;;16.90;99.90;;;;;;6136208;23;20112;-86
2021/08/11 05:39:47;;;;;;;7.95;4.40;;;17.00;99.90;;;;;;6131780;23;20012;-86
2021/08/11 05:42:12;;;;;;;7.00;5.05;;;16.90;99.90;;;;;;6133407;23;20009;-87
2021/08/11 05:44:38;;;;;;;7.00;5.20;;;17.00;99.90;;;;;;6158652;23;20084;-86
2021/08/11 05:47:04;;;;;;;7.97;4.95;;;17.00;99.90;;;;;;6132210;23;20006;-85
2021/08/11 05:49:31;;;;;;;7.20;4.70;;;17.00;99.90;;;;;;6132152;23;20068;-86
2021/08/11 05:51:56;;;;;;;7.38;4.95;;;17.10;99.90;;;;;;6131951;23;20001;-86
2021/08/11 05:54:22;;;;;;;6.70;5.22;;;17.10;99.90;;;;;;6157466;23;20010;-87
2021/08/11 05:56:47;;;;;;;4.90;4.30;;;17.10;99.90;;;;;;6132377;23;20080;-88
2021/08/11 05:59:13;;;;;;;6.13;4.10;;;17.20;99.90;;;;;;6158140;23;20005;-87
2021/08/11 06:01:38;;;;;;;6.97;4.10;;;17.10;99.90;;;;;;6132705;23;20208;-87
2021/08/11 06:04:04;;;;;;;7.05;4.70;;;17.20;99.90;;;;;;6131581;23;20072;-87
2021/08/11 06:06:30;;;;;;;5.82;4.80;;;17.20;99.90;;;;;;6132967;23;20028;-88
2021/08/11 06:08:56;;;;;;;5.63;4.13;;;17.20;99.90;;;;;;6157975;23;20040;-88
2021/08/11 06:11:21;;;;;;;5.38;4.60;;;17.30;99.90;;;;;;6135042;23;20009;-86
2021/08/11 06:13:47;;;;;;;5.03;4.25;;;17.30;99.90;;;;;;6159731;23;20010;-86
2021/08/11 06:16:12;;;;;;;9.68;4.13;;;17.40;99.90;;;;;;6133781;23;20024;-88
2021/08/11 06:18:38;;;;;;;6.40;4.22;;;17.40;99.90;;;;;;6132781;23;20263;-88
2021/08/11 06:21:03;;;;;;;7.60;3.80;;;17.50;99.90;;;;;;6132569;23;20329;-88
2021/08/11 06:23:29;;;;;;;5.80;3.38;;;17.60;99.80;;;;;;6132186;23;20080;-87
2021/08/11 06:25:55;;;;;;;6.57;3.70;;;17.60;99.80;;;;;;6131451;23;20021;-88
2021/08/11 06:28:21;;;;;;;5.03;4.07;;;17.70;99.90;;;;;;6131818;23;20010;-88
2021/08/11 06:30:46;;;;;;;3.85;2.88;;;17.70;99.60;;;;;;6132274;23;20246;-86
2021/08/11 06:33:12;;;;;;;7.43;3.88;;;17.80;99.60;;;;;;6157860;23;20002;-88
2021/08/11 06:35:37;;;;;;;4.82;3.50;;;17.80;99.50;;;;;;6131884;23;20021;-87
2021/08/11 06:38:03;;;;;;;6.30;3.65;;;17.90;99.40;;;;;;6156664;23;20001;-88
2021/08/11 06:40:29;;;;;;;3.97;3.50;;;17.90;98.90;;;;;;6157710;23;20096;-87
2021/08/11 06:42:56;;;;;;;5.53;3.47;;;17.90;98.90;;;;;;6132011;23;20009;-88
2021/08/11 06:45:22;;;;;;;5.10;3.78;;;18.00;98.70;;;;;;6135571;23;20088;-88
2021/08/11 06:47:48;;;;;;;4.18;3.15;;;18.10;97.90;;;;;;6159033;23;20602;-89
2021/08/11 06:50:15;;;;;;;9.25;3.50;;;18.10;97.70;;;;;;6132567;23;20001;-88
2021/08/11 06:52:40;;;;;;;5.28;3.70;;;18.20;98.00;;;;;;6134377;23;20005;-88
2021/08/11 06:55:12;;;;;;;5.88;3.80;;;18.30;98.30;;;;;;6134251;23;20016;-88
2021/08/11 06:57:39;;;;;;;5.90;4.22;;;18.30;98.50;;;;;;6136109;23;20017;-88
2021/08/11 07:00:05;;;;;;;5.63;4.38;;;18.40;98.00;;;;;;6161258;23;20009;-87
2021/08/11 07:02:31;;;;;;;5.50;3.97;;;18.40;97.40;;;;;;6131127;23;20393;-88
2021/08/11 07:04:56;;;;;;;4.88;4.38;;;18.50;97.90;;;;;;6133793;23;20021;-88
2021/08/11 07:07:23;;;;;;;4.82;4.05;;;18.50;97.80;;;;;;6132462;23;20348;-88
2021/08/11 07:09:48;;;;;;;6.20;3.67;;;18.60;97.60;;;;;;6134380;23;20009;-87
2021/08/11 07:12:14;;;;;;;6.05;4.85;;;18.60;97.60;;;;;;6159969;23;20287;-87
2021/08/11 07:14:39;;;;;;;6.47;4.03;;;18.60;97.60;;;;;;6134799;23;20048;-88
2021/08/11 07:17:05;;;;;;;5.32;3.28;;;18.70;97.20;;;;;;6133923;23;20013;-86
2021/08/11 07:19:30;;;;;;;6.00;3.70;;;18.80;97.20;;;;;;6133701;23;20006;-87
2021/08/11 07:21:56;;;;;;;4.53;3.50;;;18.80;97.00;;;;;;6133800;23;20305;-87
2021/08/11 07:24:21;;;;;;;6.60;4.15;;;18.90;96.50;;;;;;6159950;23;20274;-87
2021/08/11 07:26:47;;;;;;;7.93;3.67;;;19.00;96.50;;;;;;6158988;23;20008;-87
2021/08/11 07:29:12;;;;;;;5.72;3.47;;;19.10;96.60;;;;;;6133629;23;20329;-87
2021/08/11 07:31:38;;;;;;;7.10;3.53;;;19.20;96.00;;;;;;6133355;23;20013;-87
2021/08/11 07:34:04;;;;;;;4.07;3.53;;;19.30;96.20;;;;;;6133488;23;20020;-87
2021/08/11 07:36:29;;;;;;;5.13;3.72;;;19.50;96.70;;;;;;6158957;23;20040;-88
2021/08/11 07:38:55;;;;;;;5.38;4.00;;;19.50;95.50;;;;;;6158335;23;20016;-87
2021/08/11 07:41:20;;;;;;;4.32;3.90;;;19.70;95.40;;;;;;6133699;23;20020;-87
2021/08/11 07:43:46;;;;;;;4.70;3.13;;;19.70;95.20;;;;;;6132556;23;20021;-87
2021/08/11 07:46:11;;;;;;;5.05;3.42;;;19.80;95.00;;;;;;6134994;23;20005;-88
2021/08/11 07:48:37;;;;;;;7.47;3.30;;;19.90;95.40;;;;;;6133811;23;20092;-87
2021/08/11 07:51:03;;;;;;;4.28;3.22;;;20.00;95.40;;;;;;6159521;23;20331;-87
2021/08/11 07:53:29;;;;;;;4.82;2.97;;;20.10;94.20;;;;;;6135372;23;20005;-88
2021/08/11 07:55:54;;;;;;;4.07;2.70;;;20.20;94.40;;;;;;6159209;23;20100;-87
2021/08/11 07:58:23;;;;;;;4.20;3.30;;;20.40;93.80;;;;;;6132099;23;20016;-86
2021/08/11 08:00:50;;;;;;;6.72;2.85;;;20.50;93.10;;;;;;6157845;23;20005;-86
2021/08/11 08:03:16;;;;;;;3.00;2.35;;;20.70;93.20;;;;;;6158600;23;20040;-87
2021/08/11 08:05:41;;;;;;;4.13;2.55;;;20.90;92.00;;;;;;6132740;23;20013;-87
2021/08/11 08:08:07;;;;;;;3.95;2.45;;;20.90;91.70;;;;;;6157762;23;20006;-87
2021/08/11 08:10:33;;;;;;;5.03;2.50;;;21.00;92.00;;;;;;6132914;23;20001;-87
2021/08/11 08:12:59;;;;;;;4.07;2.92;;;21.10;91.90;;;;;;6159168;23;20010;-87
2021/08/11 08:15:25;;;;;;;3.15;2.25;;;21.20;91.70;;;;;;6133145;23;20013;-86
2021/08/11 08:17:51;;;;;;;3.75;2.53;;;21.30;91.10;;;;;;6131686;23;20501;-86
2021/08/11 08:20:18;;;;;;;4.05;2.35;;;21.30;91.70;;;;;;6132720;23;20562;-87
2021/08/11 08:22:45;;;;;;;2.88;2.40;;;21.30;91.70;;;;;;6158417;23;20016;-87
2021/08/11 08:25:11;;;;;;;2.85;2.35;;;21.30;92.00;;;;;;6158426;23;20338;-87
2021/08/11 08:27:38;;;;;;;5.30;3.00;;;21.40;92.20;;;;;;6132310;23;20012;-87
2021/08/11 08:30:05;;;;;;;2.63;2.42;;;21.60;91.30;;;;;;6131814;23;20005;-87
2021/08/11 08:32:31;;;;;;;3.53;2.10;;;21.70;92.00;;;;;;6158251;23;20338;-87
2021/08/11 08:34:57;;;;;;;3.05;2.60;;;21.80;91.60;;;;;;6132368;23;20013;-86
2021/08/11 08:37:31;;;;;;;4.55;3.10;;;21.90;91.30;;;;;;6130701;23;20020;-87
2021/08/11 08:39:57;;;;;;;6.65;2.20;;;22.00;89.10;;;;;;6130842;23;20067;-87
2021/08/11 08:42:22;;;;;;;2.97;1.90;;;22.00;89.20;;;;;;6131706;23;20017;-86
2021/08/11 08:44:48;;;;;;;3.35;2.60;;;22.10;89.30;;;;;;6157805;23;20005;-86
2021/08/11 08:47:17;;;;;;;3.45;2.03;;;22.20;86.40;;;;;;6157377;23;20060;-86
2021/08/11 08:49:44;;;;;;;5.70;2.40;;;22.20;87.40;;;;;;6157207;23;19997;-87
2021/08/11 08:52:10;;;;;;;3.78;2.63;;;22.20;90.00;;;;;;6157748;23;20074;-87
2021/08/11 08:54:36;;;;;;;2.70;2.25;;;22.30;89.10;;;;;;6131859;23;20026;-86
2021/08/11 08:57:02;;;;;;;3.13;2.08;;;22.40;88.50;;;;;;6132717;23;20016;-86
2021/08/11 08:59:28;;;;;;;2.10;1.90;;;22.50;86.90;;;;;;6131727;23;20231;-87
2021/08/11 09:01:53;;;;;;;6.82;1.95;;;22.60;87.00;;;;;;6134242;23;20338;-87
2021/08/11 09:04:19;;;;;;;3.80;2.35;;;22.70;87.50;;;;;;6133790;23;20016;-86
2021/08/11 09:06:44;;;;;;;2.72;1.80;;;22.70;87.40;;;;;;6132907;23;20290;-86
2021/08/11 09:09:11;;;;;;;2.45;1.65;;;22.70;84.40;;;;;;6131926;23;20064;-86
2021/08/11 09:11:40;;;;;;;3.15;1.67;;;22.60;87.70;;;;;;6158055;23;20044;-86
2021/08/11 09:14:16;;;;;;;5.57;2.35;;;22.70;84.30;;;;;;6107377;23;20029;-86
2021/08/11 09:16:47;;;;;;;4.90;1.90;;;22.70;85.10;;;;;;6131852;23;20037;-87
2021/08/11 09:19:13;;;;;;;3.17;2.13;;;22.80;85.60;;;;;;6132093;23;20020;-86
2021/08/11 09:21:39;;;;;;;5.72;1.77;;;22.80;83.50;;;;;;6131346;23;20009;-86
2021/08/11 09:24:17;;;;;;;4.38;1.77;;;22.90;85.90;;;;;;6132156;23;20009;-87
2021/08/11 09:26:43;;;;;;;3.08;2.30;;;23.00;83.40;;;;;;6131879;23;20326;-86
2021/08/11 09:29:09;;;;;;;2.42;1.52;;;23.10;82.60;;;;;;6157244;23;20178;-86
2021/08/11 09:31:35;;;;;;;2.72;1.75;;;23.10;83.40;;;;;;6132012;23;20009;-88
2021/08/11 09:34:03;;;;;;;8.30;2.13;;;23.30;80.70;;;;;;6132561;23;20012;-87
2021/08/11 09:36:51;;;;;;;3.72;2.08;;;23.40;80.60;;;;;;6131684;23;20002;-86
2021/08/11 09:39:18;;;;;;;2.17;1.63;;;23.60;79.50;;;;;;6157173;23;20015;-86
2021/08/11 09:42:03;;;;;;;4.35;1.90;;;23.80;80.60;;;;;;6156799;23;20012;-86
2021/08/11 09:44:29;;;;;;;4.38;1.92;;;23.90;79.00;;;;;;6131169;23;20020;-85
2021/08/11 09:47:09;;;;;;;2.85;1.85;;;23.90;79.30;;;;;;6156166;23;20085;-86
2021/08/11 09:49:35;;;;;;;4.35;1.55;;;23.80;79.50;;;;;;6130200;23;20009;-86
2021/08/11 09:52:02;;;;;;;2.38;1.73;;;23.70;79.40;;;;;;6156171;23;20029;-86
2021/08/11 09:54:29;;;;;;;2.45;1.70;;;23.70;81.00;;;;;;6131446;23;20016;-86
2021/08/11 09:56:56;;;;;;;2.63;1.60;;;23.70;80.80;;;;;;6156719;23;20109;-86
2021/08/11 09:59:22;;;;;;;3.70;1.58;;;23.80;78.80;;;;;;6155963;23;20212;-87
2021/08/11 10:01:47;;;;;;;3.20;2.30;;;24.00;78.10;;;;;;6131392;23;20102;-86
2021/08/11 10:04:14;;;;;;;3.40;1.73;;;24.10;76.50;;;;;;6157135;23;20230;-86
2021/08/11 10:06:43;;;;;;;3.30;1.77;;;24.10;76.10;;;;;;6156350;23;20008;-86
2021/08/11 10:09:21;;;;;;;2.63;1.92;;;24.10;77.80;;;;;;6130063;23;20246;-86
2021/08/11 10:11:51;;;;;;;2.70;1.92;;;24.00;79.20;;;;;;6156296;23;20001;-86
2021/08/11 10:14:21;;;;;;;3.83;1.80;;;24.10;79.00;;;;;;6132187;23;20025;-86
2021/08/11 10:16:47;;;;;;;4.07;1.42;;;24.20;77.50;;;;;;6133913;23;20262;-87
2021/08/11 10:19:13;;;;;;;2.20;1.55;;;24.30;75.90;;;;;;6158058;23;20006;-85
2021/08/11 10:21:46;;;;;;;2.88;1.60;;;24.40;76.10;;;;;;6156520;23;20013;-85
2021/08/11 10:24:12;;;;;;;3.05;1.75;;;24.50;75.90;;;;;;6156861;23;20040;-85
2021/08/11 10:26:38;;;;;;;2.75;1.77;;;24.50;74.60;;;;;;6157018;23;20002;-85
2021/08/11 10:29:06;;;;;;;3.33;1.60;;;24.50;74.60;;;;;;6157692;23;20076;-83
2021/08/11 10:31:33;;;;;;;2.72;1.73;;;24.50;75.40;;;;;;6158258;23;20013;-85
2021/08/11 10:34:02;;;;;;;3.50;1.70;;;24.50;76.60;;;;;;6132431;23;20020;-84
2021/08/11 10:36:32;;;;;;;2.97;1.63;;;24.40;74.90;;;;;;6158314;23;20297;-83
2021/08/11 10:38:59;;;;;;;3.17;2.03;;;24.30;75.10;;;;;;6131220;23;20048;-83
2021/08/11 10:41:33;;;;;;;4.30;2.40;;;24.20;75.10;;;;;;6132597;23;20006;-84
2021/08/11 10:44:00;;;;;;;4.80;1.95;;;24.10;75.90;;;;;;6157847;23;20429;-84
2021/08/11 10:46:37;;;;;;;10.02;2.65;;;24.00;75.90;;;;;;6135066;23;20009;-85
2021/08/11 10:49:04;;;;;;;3.05;1.80;;;24.00;77.20;;;;;;6134241;23;19997;-86
2021/08/11 10:51:38;;;;;;;2.78;2.28;;;23.90;76.20;;;;;;6133203;23;20628;-85
2021/08/11 10:54:04;;;;;;;3.47;1.60;;;23.90;78.50;;;;;;6137014;23;20033;-86
2021/08/11 10:56:45;;;;;;;11.45;7.90;;;24.00;77.50;;;;;;6131953;23;20015;-84
2021/08/11 10:59:43;;;;;;;3.85;2.58;;;24.10;78.10;;;;;;6131143;23;20290;-83
2021/08/11 11:02:44;;;;;;;3.28;2.65;;;24.20;76.00;;;;;;6122624;23;20072;-86
2021/08/11 11:05:22;;;;;;;4.55;3.67;;;24.30;76.80;;;;;;6133495;23;20095;-87
2021/08/11 11:08:13;;;;;;;4.68;3.13;;;24.40;77.40;;;;;;6132823;23;20535;-87
2021/08/11 11:10:41;;;;;;;3.40;2.75;;;24.50;79.30;;;;;;6133747;23;20032;-88
2021/08/11 11:13:36;;;;;;;5.43;3.30;;;24.60;74.50;;;;;;6134384;23;20016;-88
2021/08/11 11:16:03;;;;;;;4.68;3.17;;;24.70;75.90;;;;;;6154742;23;20088;-86
2021/08/11 11:18:29;;;;;;;3.70;2.92;;;24.80;74.70;;;;;;6133579;23;20013;-86
2021/08/11 11:20:58;;;;;;;6.10;3.63;;;24.90;77.40;;;;;;6147142;23;19994;-88
2021/08/11 11:23:50;;;;;;;4.55;4.03;;;25.00;74.10;;;;;;6140842;23;20033;-87
2021/08/11 11:26:29;;;;;;;5.00;2.77;;;25.20;74.50;;;;;;6127441;23;20017;-87
2021/08/11 11:29:01;;;;;;;5.15;3.17;;;25.40;76.10;;;;;;6134085;23;20016;-88
2021/08/11 11:31:34;;;;;;;4.55;2.88;;;25.60;75.30;;;;;;6133502;23;20007;-88
2021/08/11 11:34:18;;;;;;;4.18;2.65;;;25.70;74.50;;;;;;6133521;23;20006;-87
2021/08/11 11:36:43;;;;;;;2.42;1.73;;;25.70;73.00;;;;;;6134098;23;20005;-87
2021/08/11 11:39:11;;;;;;;3.20;2.22;;;25.80;73.40;;;;;;6133519;23;20009;-87
2021/08/11 11:41:38;;;;;;;3.25;2.88;;;25.80;73.30;;;;;;6134153;23;20001;-88
2021/08/11 11:44:42;;;;;;;3.50;2.92;;;26.00;71.80;;;;;;6133007;23;20016;-85
2021/08/11 11:47:09;;;;;;;3.33;2.55;;;26.00;70.00;;;;;;6133877;23;20005;-87
2021/08/11 11:49:36;;;;;;;5.45;3.17;;;26.00;71.70;;;;;;6132180;23;20017;-87
2021/08/11 11:52:03;;;;;;;3.35;2.58;;;25.90;71.70;;;;;;6133296;23;20092;-86
2021/08/11 11:54:30;;;;;;;5.25;3.92;;;25.80;73.20;;;;;;6134208;23;20013;-86
2021/08/11 11:56:56;;;;;;;4.63;3.17;;;25.80;71.50;;;;;;6152772;23;20012;-89
2021/08/11 11:59:23;;;;;;;3.92;3.33;;;25.80;72.50;;;;;;6159955;23;20017;-87
2021/08/11 12:01:49;;;;;;;3.97;2.90;;;25.80;72.90;;;;;;6132858;23;20005;-89
2021/08/11 12:04:24;;;;;;;5.63;2.95;;;25.70;71.60;;;;;;6133797;23;20002;-87
2021/08/11 12:06:50;;;;;;;3.45;2.88;;;25.60;74.10;;;;;;6133112;23;20294;-87
2021/08/11 12:09:16;;;;;;;4.55;2.45;;;25.50;72.30;;;;;;6132552;23;20032;-86
2021/08/11 12:11:43;;;;;;;4.15;2.50;;;25.50;72.70;;;;;;6134044;23;20006;-88
2021/08/11 12:14:09;;;;;;;5.40;2.78;;;25.60;74.90;;;;;;6136233;23;20017;-87
2021/08/11 12:16:42;;;;;;;4.30;2.50;;;25.70;74.50;;;;;;6133808;23;20028;-86
2021/08/11 12:19:14;;;;;;;6.15;2.55;;;25.80;73.50;;;;;;6132207;23;20422;-89
2021/08/11 12:21:41;;;;;;;3.72;2.17;;;25.90;75.20;;;;;;6132635;23;20017;-87
2021/08/11 12:24:07;;;;;;;4.03;2.38;;;26.00;72.40;;;;;;6132872;23;20022;-86
2021/08/11 12:26:33;;;;;;;2.75;1.95;;;26.10;72.20;;;;;;6158035;23;20408;-86
2021/08/11 12:28:59;;;;;;;5.78;2.40;;;26.10;72.30;;;;;;6138895;23;20010;-88
2021/08/11 12:31:33;;;;;;;2.95;2.35;;;26.10;75.60;;;;;;6144630;23;19987;-88
2021/08/11 12:34:01;;;;;;;4.43;2.58;;;26.10;72.70;;;;;;6174463;23;20009;-87
2021/08/11 12:36:31;;;;;;;4.63;2.22;;;26.10;73.60;;;;;;6163879;23;20039;-88
2021/08/11 12:38:59;;;;;;;3.03;2.10;;;26.10;73.00;;;;;;6132474;23;20084;-88
2021/08/11 12:41:26;;;;;;;6.18;2.30;;;26.10;70.40;;;;;;6133017;23;20020;-88
2021/08/11 12:43:56;;;;;;;2.25;1.70;;;26.00;71.90;;;;;;6158250;23;20337;-87
2021/08/11 12:46:45;;;;;;;2.47;2.10;;;26.10;72.10;;;;;;6157999;23;20061;-87
2021/08/11 12:49:49;;;;;;;3.42;2.53;;;26.00;71.30;;;;;;6160701;23;20001;-87
2021/08/11 12:52:17;;;;;;;2.80;2.25;;;26.00;73.80;;;;;;6135363;23;20080;-87